Time;durP1;ratioP1;P1;durP2;ratioP2;P2;SDS_P1;SDS_P2;PMS_P1;PMS_P2;Temp;Humidity;BMP_temperature;BMP_pressure;BME280_temperature;BME280_humidity;BME280_pressure;Samples;Min_cycle;Max_cycle;Signal;HPM_P1;HPM_P2
2021/11/18 00:01:41;;;;;;;19.02;13.10;;;4.40;99.90;;;;;;6114153;23;20025;-85
2021/11/18 00:04:29;;;;;;;21.88;14.00;;;4.40;99.90;;;;;;6136170;23;20030;-84
2021/11/18 00:07:16;;;;;;;20.92;13.35;;;4.40;99.90;;;;;;6155538;23;20457;-85
2021/11/18 00:10:04;;;;;;;21.05;12.18;;;4.40;99.90;;;;;;6153936;23;20025;-85
2021/11/18 00:13:01;;;;;;;20.23;12.60;;;4.30;99.90;;;;;;6134364;23;20029;-84
2021/11/18 00:15:49;;;;;;;21.75;12.88;;;4.40;99.90;;;;;;6132061;23;20021;-85
2021/11/18 00:18:44;;;;;;;17.30;12.20;;;4.40;99.90;;;;;;6154187;23;20081;-84
2021/11/18 00:21:44;;;;;;;17.30;11.75;;;4.40;99.90;;;;;;6134131;23;20025;-83
2021/11/18 00:24:31;;;;;;;17.42;11.80;;;4.40;99.90;;;;;;6153626;23;20081;-87
2021/11/18 00:27:23;;;;;;;18.63;12.00;;;4.40;99.90;;;;;;6133470;23;20263;-86
2021/11/18 00:30:17;;;;;;;15.38;10.57;;;4.40;99.90;;;;;;6156041;23;20037;-86
2021/11/18 00:33:07;;;;;;;20.27;12.15;;;4.40;99.90;;;;;;6152465;23;20026;-86
2021/11/18 00:35:55;;;;;;;17.17;11.45;;;4.40;99.90;;;;;;6132202;23;20025;-85
2021/11/18 00:38:43;;;;;;;18.90;12.13;;;4.40;99.90;;;;;;6134081;23;20029;-85
2021/11/18 00:41:31;;;;;;;19.08;12.45;;;4.40;99.90;;;;;;6155583;23;20026;-86
2021/11/18 00:44:19;;;;;;;20.15;11.88;;;4.40;99.90;;;;;;6153257;23;20056;-85
2021/11/18 00:47:06;;;;;;;18.30;12.98;;;4.40;99.90;;;;;;6155446;23;20053;-86
2021/11/18 00:49:56;;;;;;;14.63;10.77;;;4.40;99.90;;;;;;6156419;23;20160;-85
2021/11/18 00:52:43;;;;;;;17.42;11.02;;;4.40;99.90;;;;;;6152803;23;20472;-85
2021/11/18 00:55:31;;;;;;;22.30;11.38;;;4.40;99.90;;;;;;6156383;23;20025;-88
2021/11/18 00:58:19;;;;;;;18.63;11.32;;;4.40;99.90;;;;;;6153064;23;20037;-86
2021/11/18 01:01:06;;;;;;;16.85;11.73;;;4.40;99.90;;;;;;6152856;23;20401;-86
2021/11/18 01:03:54;;;;;;;18.73;12.40;;;4.40;99.90;;;;;;6152788;23;20297;-87
2021/11/18 01:06:42;;;;;;;20.90;12.13;;;4.40;99.90;;;;;;6134331;23;20165;-85
2021/11/18 01:09:30;;;;;;;15.65;11.27;;;4.40;99.90;;;;;;6134033;23;20406;-84
2021/11/18 01:12:17;;;;;;;18.98;12.63;;;4.40;99.90;;;;;;6133089;23;20033;-82
2021/11/18 01:15:07;;;;;;;17.92;11.45;;;4.40;99.90;;;;;;6132410;23;20032;-86
2021/11/18 01:17:54;;;;;;;17.42;11.80;;;4.40;99.90;;;;;;6153234;23;20049;-85
2021/11/18 01:20:43;;;;;;;17.25;11.32;;;4.40;99.90;;;;;;6155848;23;20152;-83
2021/11/18 01:23:38;;;;;;;18.20;11.63;;;4.50;99.90;;;;;;6132635;23;20115;-84
2021/11/18 01:26:25;;;;;;;16.63;11.40;;;4.50;99.90;;;;;;6152625;23;20080;-84
2021/11/18 01:29:12;;;;;;;20.45;10.70;;;4.50;99.90;;;;;;6158231;23;20088;-84
2021/11/18 01:32:00;;;;;;;16.25;11.85;;;4.50;99.90;;;;;;6158401;23;20088;-86
2021/11/18 01:34:47;;;;;;;19.90;12.18;;;4.50;99.90;;;;;;6157270;23;20029;-87
2021/11/18 01:37:40;;;;;;;22.52;11.88;;;4.50;99.90;;;;;;6155966;23;20064;-88
2021/11/18 01:40:34;;;;;;;17.77;12.65;;;4.50;99.90;;;;;;6134147;23;20137;-85
2021/11/18 01:43:24;;;;;;;18.13;11.52;;;4.50;99.90;;;;;;6135711;23;20393;-86
2021/11/18 01:46:20;;;;;;;17.67;12.20;;;4.50;99.90;;;;;;6155984;23;20425;-85
2021/11/18 01:49:13;;;;;;;17.80;12.23;;;4.50;99.90;;;;;;6143473;23;20128;-85
2021/11/18 01:52:04;;;;;;;18.17;11.75;;;4.60;99.90;;;;;;6165081;23;20031;-85
2021/11/18 01:54:51;;;;;;;19.13;11.93;;;4.60;99.90;;;;;;6156965;23;20029;-86
2021/11/18 01:57:39;;;;;;;16.85;12.77;;;4.60;99.90;;;;;;6133697;23;20029;-84
2021/11/18 02:00:41;;;;;;;18.40;12.38;;;4.60;99.90;;;;;;6155389;23;20109;-86
2021/11/18 02:03:30;;;;;;;20.10;12.48;;;4.60;99.90;;;;;;6154376;23;20029;-87
2021/11/18 02:06:31;;;;;;;17.33;12.52;;;4.60;99.90;;;;;;6155302;23;20291;-86
2021/11/18 02:09:23;;;;;;;19.77;13.43;;;4.60;99.90;;;;;;6154946;23;20700;-86
2021/11/18 02:12:22;;;;;;;18.73;12.15;;;4.60;99.90;;;;;;6155965;23;20025;-86
2021/11/18 02:15:24;;;;;;;19.58;12.50;;;4.60;99.90;;;;;;6135775;23;20044;-87
2021/11/18 02:18:22;;;;;;;19.33;12.80;;;4.60;99.90;;;;;;6157380;23;20362;-85
2021/11/18 02:21:14;;;;;;;20.27;13.45;;;4.60;99.90;;;;;;6157848;23;20052;-84
2021/11/18 02:24:17;;;;;;;23.02;13.85;;;4.60;99.90;;;;;;6132192;23;20028;-84
2021/11/18 02:27:04;;;;;;;22.98;14.40;;;4.60;99.90;;;;;;6133183;23;20068;-84
2021/11/18 02:29:53;;;;;;;22.25;13.95;;;4.60;99.90;;;;;;6155271;23;20057;-83
2021/11/18 02:32:41;;;;;;;21.80;13.82;;;4.60;99.90;;;;;;6154284;23;20096;-85
2021/11/18 02:35:30;;;;;;;20.00;13.07;;;4.60;99.90;;;;;;6156089;23;20026;-84
2021/11/18 02:38:18;;;;;;;21.35;14.20;;;4.60;99.90;;;;;;6153546;23;20100;-84
2021/11/18 02:41:12;;;;;;;19.92;13.63;;;4.60;99.90;;;;;;6132507;23;20437;-83
2021/11/18 02:43:59;;;;;;;21.00;13.63;;;4.60;99.90;;;;;;6154377;23;20080;-85
2021/11/18 02:46:47;;;;;;;20.67;13.60;;;4.60;99.90;;;;;;6135008;23;20084;-84
2021/11/18 02:49:34;;;;;;;21.48;13.93;;;4.60;99.90;;;;;;6154325;23;20044;-84
2021/11/18 02:52:28;;;;;;;22.48;13.93;;;4.60;99.90;;;;;;6132759;23;20103;-85
2021/11/18 02:55:30;;;;;;;20.67;13.35;;;4.60;99.90;;;;;;6149123;23;20053;-85
2021/11/18 02:58:19;;;;;;;22.25;13.25;;;4.60;99.90;;;;;;6168984;23;20080;-85
2021/11/18 03:01:13;;;;;;;22.35;12.77;;;4.60;99.90;;;;;;6174568;23;20013;-84
2021/11/18 03:04:00;;;;;;;23.35;14.68;;;4.60;99.90;;;;;;6159763;23;20040;-85
2021/11/18 03:06:50;;;;;;;21.30;13.15;;;4.60;99.90;;;;;;6182451;23;20023;-83
2021/11/18 03:09:40;;;;;;;22.27;13.15;;;4.60;99.90;;;;;;6178649;23;20072;-85
2021/11/18 03:12:27;;;;;;;20.95;12.20;;;4.60;99.90;;;;;;6157723;23;20033;-82
2021/11/18 03:15:15;;;;;;;21.52;14.38;;;4.60;99.90;;;;;;6182115;23;20018;-82
2021/11/18 03:18:02;;;;;;;22.20;14.45;;;4.60;99.90;;;;;;6178664;23;20060;-86
2021/11/18 03:20:52;;;;;;;24.00;14.30;;;4.60;99.90;;;;;;6179774;23;20058;-88
2021/11/18 03:23:45;;;;;;;20.92;12.90;;;4.60;99.90;;;;;;6152933;23;20104;-89
2021/11/18 03:26:36;;;;;;;20.70;13.07;;;4.60;99.90;;;;;;6144299;23;20030;-85
2021/11/18 03:29:26;;;;;;;22.33;14.32;;;4.60;99.90;;;;;;6142663;23;20048;-87
2021/11/18 03:32:13;;;;;;;20.35;13.13;;;4.60;99.90;;;;;;6153732;23;20168;-84
2021/11/18 03:35:02;;;;;;;18.88;13.07;;;4.60;99.90;;;;;;6131681;23;20021;-84
2021/11/18 03:37:50;;;;;;;20.98;12.23;;;4.60;99.90;;;;;;6153567;23;20064;-84
2021/11/18 03:40:39;;;;;;;21.45;13.02;;;4.70;99.90;;;;;;6156215;23;20026;-85
2021/11/18 03:43:26;;;;;;;20.25;13.30;;;4.70;99.90;;;;;;6132423;23;20353;-84
2021/11/18 03:46:15;;;;;;;22.00;13.35;;;4.70;99.90;;;;;;6155614;23;20345;-84
2021/11/18 03:49:03;;;;;;;20.85;13.77;;;4.60;99.90;;;;;;6155519;23;20436;-86
2021/11/18 03:51:52;;;;;;;24.90;14.45;;;4.70;99.90;;;;;;6134272;23;20053;-84
2021/11/18 03:54:42;;;;;;;19.80;13.77;;;4.70;99.90;;;;;;6132491;23;20037;-84
2021/11/18 03:57:29;;;;;;;22.40;14.02;;;4.70;99.90;;;;;;6156284;23;20056;-85
2021/11/18 04:00:25;;;;;;;23.45;14.10;;;4.70;99.90;;;;;;6133099;23;20025;-83
2021/11/18 04:03:14;;;;;;;22.88;14.60;;;4.70;99.90;;;;;;6154844;23;20473;-84
2021/11/18 04:06:02;;;;;;;24.95;16.08;;;4.70;99.90;;;;;;6134680;23;20030;-84
2021/11/18 04:08:50;;;;;;;24.80;15.90;;;4.60;99.90;;;;;;6154198;23;20071;-84
2021/11/18 04:11:39;;;;;;;23.48;14.60;;;4.70;99.90;;;;;;6156942;23;20033;-86
2021/11/18 04:14:28;;;;;;;25.83;16.40;;;4.70;99.90;;;;;;6153996;23;20057;-86
2021/11/18 04:17:16;;;;;;;26.65;15.95;;;4.70;99.90;;;;;;6154072;23;20025;-85
2021/11/18 04:20:05;;;;;;;25.35;16.10;;;4.70;99.90;;;;;;6155668;23;20137;-86
2021/11/18 04:22:56;;;;;;;23.42;15.70;;;4.70;99.90;;;;;;6153302;23;20472;-87
2021/11/18 04:25:46;;;;;;;26.77;15.88;;;4.70;99.90;;;;;;6153433;23;20041;-86
2021/11/18 04:28:34;;;;;;;23.45;15.82;;;4.70;99.90;;;;;;6155086;23;20040;-86
2021/11/18 04:31:24;;;;;;;27.98;16.90;;;4.70;99.90;;;;;;6155763;23;20037;-87
2021/11/18 04:34:14;;;;;;;34.90;17.75;;;4.70;99.90;;;;;;6133352;23;20429;-85
2021/11/18 04:37:03;;;;;;;28.02;16.00;;;4.70;99.90;;;;;;6134185;23;20045;-84
2021/11/18 04:39:51;;;;;;;26.50;16.83;;;4.70;99.90;;;;;;6131659;23;20072;-87
2021/11/18 04:42:42;;;;;;;28.58;15.40;;;4.70;99.90;;;;;;6131441;23;20026;-84
2021/11/18 04:45:30;;;;;;;22.10;14.55;;;4.80;99.90;;;;;;6136076;23;20074;-84
2021/11/18 04:48:18;;;;;;;23.98;15.32;;;4.70;99.90;;;;;;6155278;23;20044;-85
2021/11/18 04:51:18;;;;;;;31.02;17.30;;;4.80;99.90;;;;;;6154723;23;20029;-86
2021/11/18 04:54:06;;;;;;;24.50;15.93;;;4.80;99.90;;;;;;6154428;23;20091;-85
2021/11/18 04:56:53;;;;;;;22.60;14.93;;;4.80;99.90;;;;;;6153191;23;20100;-85
2021/11/18 04:59:40;;;;;;;29.40;16.75;;;4.80;99.90;;;;;;6151996;23;20038;-85
2021/11/18 05:02:43;;;;;;;27.75;15.48;;;4.80;99.90;;;;;;6135903;23;20029;-86
2021/11/18 05:05:45;;;;;;;24.33;16.23;;;4.80;99.90;;;;;;6137296;23;20284;-85
2021/11/18 05:08:33;;;;;;;23.95;15.02;;;4.80;99.90;;;;;;6154498;23;20329;-85
2021/11/18 05:11:20;;;;;;;25.00;15.43;;;4.80;99.90;;;;;;6153095;23;20105;-83
2021/11/18 05:14:11;;;;;;;20.13;13.73;;;4.90;99.90;;;;;;6131680;23;20068;-84
2021/11/18 05:16:58;;;;;;;18.88;12.75;;;5.00;99.90;;;;;;6153047;23;20033;-85
2021/11/18 05:19:48;;;;;;;23.33;13.10;;;5.00;99.90;;;;;;6151742;23;20033;-83
2021/11/18 05:22:35;;;;;;;26.30;14.80;;;4.90;99.90;;;;;;6134519;23;20025;-84
2021/11/18 05:29:59;;;;;;;;;;;;;;;;;;;;;
2021/11/18 05:49:51;;;;;;;24.58;13.93;;;4.90;99.90;;;;;;6023199;23;20048;-88
2021/11/18 05:53:37;;;;;;;23.13;15.52;;;4.90;99.90;;;;;;6022823;23;20023;-91
2021/11/18 05:56:45;;;;;;;22.20;13.52;;;4.90;99.90;;;;;;5927018;23;20402;-88
2021/11/18 05:59:32;;;;;;;21.02;13.52;;;4.90;99.90;;;;;;6042598;23;20261;-89
2021/11/18 06:02:20;;;;;;;19.55;13.15;;;4.90;99.90;;;;;;6021896;23;20443;-85
2021/11/18 06:05:09;;;;;;;24.15;14.43;;;4.90;99.90;;;;;;6039677;23;20027;-86
2021/11/18 06:07:56;;;;;;;21.38;14.40;;;4.80;99.90;;;;;;6043799;23;20035;-84
2021/11/18 06:10:47;;;;;;;24.05;15.10;;;4.90;99.90;;;;;;6139206;23;20025;-88
2021/11/18 06:13:36;;;;;;;23.20;15.18;;;4.90;99.90;;;;;;6163834;23;20432;-87
2021/11/18 06:21:25;;;;;;;26.73;15.48;;;4.90;99.90;;;;;;6156030;23;20025;-89
2021/11/18 06:24:23;;;;;;;29.75;16.27;;;4.80;99.90;;;;;;6146307;23;20064;-90
2021/11/18 06:27:15;;;;;;;28.42;16.30;;;4.80;99.90;;;;;;6142039;23;20353;-88
2021/11/18 06:30:20;;;;;;;22.35;15.45;;;4.80;99.90;;;;;;6161543;23;20095;-88
2021/11/18 06:33:08;;;;;;;25.77;16.45;;;4.80;99.90;;;;;;6137473;23;20037;-87
2021/11/18 06:36:04;;;;;;;29.70;16.15;;;4.80;99.90;;;;;;6162525;23;20072;-89
2021/11/18 06:38:57;;;;;;;27.48;16.63;;;4.80;99.90;;;;;;6138896;23;20029;-88
2021/11/18 06:41:48;;;;;;;27.85;17.23;;;4.80;99.90;;;;;;6136481;23;20052;-88
2021/11/18 06:45:02;;;;;;;31.25;17.05;;;4.90;99.90;;;;;;6174558;23;20010;-92
2021/11/18 07:04:49;;;;;;;42.42;21.58;;;4.80;99.90;;;;;;6112572;23;20025;-88
2021/11/18 07:08:51;;;;;;;47.30;23.80;;;4.90;99.90;;;;;;6042134;23;20158;-86
2021/11/18 07:25:27;;;;;;;;;;;;;;;;;;;;;
2021/11/18 07:29:00;;;;;;;;;;;;;;;;;;;;;
2021/11/18 07:35:55;;;;;;;38.58;19.77;;;5.10;99.90;;;;;;5862515;24;20262;-90
2021/11/18 07:58:39;;;;;;;;;;;;;;;;;;;;;
2021/11/18 08:27:49;;;;;;;35.88;18.33;;;5.70;99.90;;;;;;6103604;21;6980324;-86
2021/11/18 08:31:01;;;;;;;35.72;19.85;;;5.80;99.90;;;;;;6308178;22;20079;-87
2021/11/18 08:33:57;;;;;;;30.70;19.00;;;5.80;99.90;;;;;;6310033;22;20030;-84
2021/11/18 08:36:45;;;;;;;32.20;18.25;;;5.80;99.90;;;;;;6308391;22;20047;-84
2021/11/18 08:40:06;;;;;;;;;;;;;;;;;;;;;
2021/11/18 08:42:53;;;;;;;33.17;18.52;;;5.90;99.90;;;;;;6309300;22;20008;-84
2021/11/18 08:47:22;;;;;;;;;;;;;;;;;;;;;
2021/11/18 09:54:14;;;;;;;25.92;14.32;;;9.10;99.90;;;;;;5963390;23;20094;-92
2021/11/18 10:06:31;;;;;;;;;;;;;;;;;;;;;
2021/11/18 10:10:11;;;;;;;10.52;6.72;;;12.80;99.90;;;;;;6226109;23;20166;-85
2021/11/18 10:22:29;;;;;;;;;;;;;;;;;;;;;
2021/11/18 10:55:05;;;;;;;13.60;9.80;;;10.60;99.90;;;;;;5990798;23;20099;-88
2021/11/18 10:58:30;;;;;;;12.70;8.95;;;10.50;99.90;;;;;;5982779;23;20039;-85
2021/11/18 11:01:28;;;;;;;11.73;8.40;;;10.80;99.90;;;;;;6006015;23;20087;-86
2021/11/18 11:04:41;;;;;;;14.05;8.18;;;11.20;99.90;;;;;;6053046;23;20025;-83
2021/11/18 11:07:40;;;;;;;12.63;8.85;;;11.00;99.90;;;;;;6149484;23;20050;-84
2021/11/18 11:10:34;;;;;;;13.77;8.90;;;10.40;99.90;;;;;;6284038;22;20337;-92
2021/11/18 11:21:41;;;;;;;9.95;7.13;;;9.60;99.90;;;;;;6135163;23;20041;-90
2021/11/18 11:37:19;;;;;;;11.02;7.57;;;9.40;99.90;;;;;;6103148;23;20014;-90
2021/11/18 11:40:46;;;;;;;;;;;;;;;;;;;;;
2021/11/18 11:44:15;;;;;;;10.35;6.50;;;11.00;99.90;;;;;;6109358;23;20082;-90
2021/11/18 11:47:45;;;;;;;7.88;5.72;;;12.70;99.90;;;;;;6107706;23;20030;-90
2021/11/18 11:51:27;;;;;;;;;;;;;;;;;;;;;
2021/11/18 11:54:37;;;;;;;6.90;4.88;;;16.10;91.80;;;;;;5943564;24;20111;-86
2021/11/18 12:02:48;;;;;;;6.00;4.10;;;13.80;99.90;;;;;;6058187;23;20014;-91
2021/11/18 12:32:15;;;;;;;5.03;3.88;;;10.10;99.90;;;;;;6086701;23;20324;-90
2021/11/18 12:35:28;;;;;;;5.60;3.88;;;9.70;99.90;;;;;;6276723;22;20016;-90
2021/11/18 12:39:20;;;;;;;;;;;;;;;;;;;;;
2021/11/18 12:43:40;;;;;;;;;;;;;;;;;;;;;
2021/11/18 12:46:51;;;;;;;7.45;4.30;;;8.90;99.90;;;;;;6295230;22;20024;-91
2021/11/18 12:58:53;;;;;;;5.93;4.68;;;8.50;99.90;;;;;;6070767;23;20136;-88
2021/11/18 13:01:56;;;;;;;7.22;4.32;;;8.30;99.90;;;;;;6168295;23;20022;-88
2021/11/18 13:05:02;;;;;;;;;;;;;;;;;;;;;
2021/11/18 13:08:51;;;;;;;4.90;3.90;;;8.20;99.90;;;;;;6170244;23;20077;-89
2021/11/18 13:11:46;;;;;;;4.82;3.35;;;8.20;99.90;;;;;;6142704;22;20023;-85
2021/11/18 13:14:46;;;;;;;9.02;7.00;;;8.30;99.90;;;;;;6288144;22;20123;-88
2021/11/18 13:17:47;;;;;;;4.22;3.83;;;8.10;99.90;;;;;;6287311;22;20019;-87
2021/11/18 13:20:57;;;;;;;5.97;3.80;;;8.00;99.90;;;;;;6290968;22;20014;-86
2021/11/18 13:24:08;;;;;;;8.32;3.50;;;8.00;99.90;;;;;;6297799;22;20023;-88
2021/11/18 13:31:51;;;;;;;9.23;5.80;;;8.00;99.90;;;;;;6161597;23;20065;-84
2021/11/18 13:43:18;;;;;;;4.88;3.08;;;8.30;99.90;;;;;;6092948;23;20003;-84
2021/11/18 13:46:12;;;;;;;6.65;5.22;;;8.20;99.90;;;;;;6091849;23;20053;-85
2021/11/18 13:53:19;;;;;;;7.05;4.05;;;8.00;99.90;;;;;;6203478;23;20025;-87
2021/11/18 13:56:51;;;;;;;5.97;3.75;;;8.00;99.90;;;;;;6221833;22;20015;-92
2021/11/18 14:04:55;;;;;;;2.92;2.40;;;8.00;99.90;;;;;;6291515;22;20015;-91
2021/11/18 14:08:09;;;;;;;4.65;3.35;;;8.10;99.90;;;;;;6167378;23;20028;-90
2021/11/18 14:12:02;;;;;;;14.32;4.05;;;8.10;99.90;;;;;;6124927;23;20057;-90
2021/11/18 14:19:40;;;;;;;3.88;3.45;;;8.10;99.90;;;;;;6142852;23;20097;-89
2021/11/18 14:22:41;;;;;;;5.85;2.70;;;8.10;99.90;;;;;;6097019;23;20091;-88
2021/11/18 14:26:44;;;;;;;4.00;3.05;;;8.00;99.90;;;;;;6213315;23;20036;-89
2021/11/18 14:30:46;;;;;;;5.22;3.05;;;8.00;99.90;;;;;;6236840;22;20028;-91
2021/11/18 14:34:02;;;;;;;7.20;4.53;;;7.90;99.90;;;;;;6281893;22;20023;-89
2021/11/18 14:37:45;;;;;;;7.45;5.05;;;7.80;99.90;;;;;;6295770;22;20032;-87
2021/11/18 14:41:07;;;;;;;3.90;3.45;;;7.80;99.90;;;;;;6285166;22;20048;-89
2021/11/18 14:44:08;;;;;;;4.78;4.05;;;7.70;99.90;;;;;;6290077;22;20023;-89
2021/11/18 14:47:28;;;;;;;6.18;3.47;;;7.70;99.90;;;;;;6290589;22;20031;-88
2021/11/18 14:50:35;;;;;;;5.40;3.30;;;7.70;99.90;;;;;;6290181;22;20031;-88
2021/11/18 14:53:37;;;;;;;3.75;3.30;;;7.70;99.90;;;;;;6309767;22;20024;-90
2021/11/18 14:56:33;;;;;;;4.80;3.90;;;7.70;99.90;;;;;;6296368;22;20071;-87
2021/11/18 15:03:08;;;;;;;3.67;2.90;;;7.60;99.90;;;;;;6234505;22;20028;-86
2021/11/18 15:06:18;;;;;;;5.78;3.25;;;7.60;99.90;;;;;;6291056;22;20069;-87
2021/11/18 15:09:13;;;;;;;;;;;7.60;99.90;;;;;;6290198;22;20024;-91
2021/11/18 15:12:59;;;;;;;;;;;;;;;;;;;;;
2021/11/18 15:57:11;;;;;;;10.07;5.03;;;5.80;99.90;;;;;;5978065;23;20043;-89
2021/11/18 16:00:04;;;;;;;6.32;3.88;;;5.70;99.90;;;;;;6080274;23;20330;-89
2021/11/18 16:03:04;;;;;;;6.55;4.72;;;5.60;99.90;;;;;;6232021;22;20034;-88
2021/11/18 16:05:55;;;;;;;7.13;4.00;;;5.60;99.90;;;;;;6278215;22;20125;-89
2021/11/18 16:08:45;;;;;;;6.53;3.53;;;5.50;99.90;;;;;;6277399;22;20030;-89
2021/11/18 16:16:32;;;;;;;7.82;4.20;;;5.40;99.90;;;;;;6285973;22;20011;-89
2021/11/18 16:24:24;;;;;;;;;;;;;;;;;;;;;
2021/11/18 16:31:17;;;;;;;8.60;5.97;;;4.80;99.90;;;;;;5991706;23;20044;-90
2021/11/18 16:34:27;;;;;;;12.50;7.00;;;4.60;99.90;;;;;;5968468;24;20059;-90
2021/11/18 16:37:31;;;;;;;16.80;10.10;;;4.50;99.90;;;;;;5965813;24;20088;-87
2021/11/18 16:40:36;;;;;;;13.63;9.15;;;4.40;99.90;;;;;;6009651;23;20023;-85
2021/11/18 16:43:26;;;;;;;13.68;8.18;;;4.20;99.90;;;;;;6066084;23;20037;-88
2021/11/18 16:46:14;;;;;;;15.02;9.98;;;4.10;99.90;;;;;;6047431;23;20030;-86
2021/11/18 16:49:04;;;;;;;13.27;7.95;;;4.00;99.90;;;;;;6047544;23;20030;-87
2021/11/18 16:51:57;;;;;;;15.10;9.43;;;3.90;99.90;;;;;;6062393;23;20046;-90
2021/11/18 16:54:44;;;;;;;16.10;9.13;;;3.90;99.90;;;;;;6143864;23;20040;-89
2021/11/18 16:58:18;;;;;;;16.80;10.25;;;4.00;99.90;;;;;;6225703;22;20028;-90
2021/11/18 17:01:16;;;;;;;40.53;19.08;;;3.90;99.90;;;;;;6277328;22;20027;-89
2021/11/18 17:04:09;;;;;;;61.95;29.27;;;3.80;99.90;;;;;;6285373;22;20020;-89
2021/11/18 17:06:57;;;;;;;;;;;3.70;99.90;;;;;;6290663;22;20036;-87
2021/11/18 17:09:48;;;;;;;41.08;20.73;;;3.60;99.90;;;;;;6288975;22;19926;-87
2021/11/18 17:12:42;;;;;;;30.75;17.90;;;3.60;99.90;;;;;;6288599;22;20055;-87
2021/11/18 17:15:34;;;;;;;35.05;18.55;;;3.60;99.90;;;;;;6280440;22;20078;-87
2021/11/18 17:18:32;;;;;;;24.38;13.50;;;3.60;99.90;;;;;;6283318;22;20039;-88
2021/11/18 17:21:26;;;;;;;34.20;18.55;;;3.40;99.90;;;;;;6284290;22;20247;-88
2021/11/18 17:24:16;;;;;;;23.75;15.48;;;3.40;99.90;;;;;;6281247;22;20030;-89
2021/11/18 17:27:07;;;;;;;24.75;15.10;;;3.30;99.90;;;;;;6279620;22;20035;-87
2021/11/18 17:29:58;;;;;;;33.93;17.67;;;3.20;99.90;;;;;;6278981;22;20034;-87
2021/11/18 17:32:47;;;;;;;30.08;16.98;;;3.20;99.90;;;;;;6282417;22;20028;-84
2021/11/18 17:35:34;;;;;;;26.00;16.15;;;3.20;99.90;;;;;;6280726;22;20089;-87
2021/11/18 17:38:25;;;;;;;32.33;18.80;;;3.10;99.90;;;;;;6283119;22;20019;-86
2021/11/18 17:41:15;;;;;;;33.95;16.20;;;3.10;99.90;;;;;;6283352;22;20020;-85
2021/11/18 17:44:03;;;;;;;30.60;17.00;;;3.00;99.90;;;;;;6284630;22;20107;-88
2021/11/18 17:47:02;;;;;;;39.92;24.80;;;3.00;99.90;;;;;;6284264;22;20028;-88
2021/11/18 17:49:53;;;;;;;30.92;18.65;;;3.00;99.90;;;;;;6283276;22;20027;-87
2021/11/18 17:52:42;;;;;;;38.53;20.52;;;2.90;99.90;;;;;;6284251;22;20032;-89
2021/11/18 17:55:32;;;;;;;34.20;19.77;;;2.80;99.90;;;;;;6278486;22;20023;-88
2021/11/18 17:58:19;;;;;;;30.33;19.17;;;2.70;99.90;;;;;;6279317;22;20031;-88
2021/11/18 18:01:37;;;;;;;77.93;44.83;;;2.80;99.90;;;;;;6277994;22;20024;-89
2021/11/18 18:04:27;;;;;;;66.28;36.63;;;2.80;99.90;;;;;;6281445;22;20257;-89
2021/11/18 18:07:17;;;;;;;64.30;34.65;;;2.90;99.90;;;;;;6280362;22;20081;-87
2021/11/18 18:10:09;;;;;;;69.78;41.65;;;2.90;99.90;;;;;;6282791;22;20023;-89
2021/11/18 18:12:59;;;;;;;66.10;37.53;;;2.90;99.90;;;;;;6284348;22;20401;-88
2021/11/18 18:16:01;;;;;;;60.72;31.70;;;2.80;99.90;;;;;;6281169;22;20024;-87
2021/11/18 18:18:54;;;;;;;38.05;20.27;;;2.70;99.90;;;;;;6283136;22;20019;-89
2021/11/18 18:21:45;;;;;;;26.00;16.70;;;2.60;99.90;;;;;;6282409;22;20187;-85
2021/11/18 18:24:34;;;;;;;25.38;14.90;;;2.60;99.90;;;;;;6288374;22;20035;-84
2021/11/18 18:27:25;;;;;;;21.58;13.70;;;2.80;99.90;;;;;;6294705;22;20020;-89
2021/11/18 18:30:39;;;;;;;18.88;12.68;;;2.80;99.90;;;;;;6293484;22;20023;-88
2021/11/18 18:34:45;;;;;;;18.88;11.80;;;2.80;99.90;;;;;;6289546;22;20027;-89
2021/11/18 18:47:11;;;;;;;;;;;;;;;;;;;;;
2021/11/18 18:54:33;;;;;;;30.58;19.58;;;2.70;99.90;;;;;;6007893;23;20012;-90
2021/11/18 19:26:56;;;;;;;;;;;;;;;;;;;;;
2021/11/18 19:34:33;;;;;;;;;;;;;;;;;;;;;
2021/11/18 19:39:03;;;;;;;;;;;;;;;;;;;;;
2021/11/18 19:42:32;;;;;;;;;;;;;;;;;;;;;
2021/11/18 19:45:47;;;;;;;49.85;28.13;;;2.20;99.90;;;;;;5920448;24;20032;-86
2021/11/18 19:49:14;;;;;;;;;;;;;;;;;;;;;
2021/11/18 19:53:18;;;;;;;;;;;;;;;;;;;;;
2021/11/18 19:56:37;;;;;;;63.35;25.17;;;2.20;99.90;;;;;;6066733;23;20073;-89
2021/11/18 20:05:09;;;;;;;;;;;;;;;;;;;;;
2021/11/18 20:13:15;;;;;;;;;;;;;;;;;;;;;
2021/11/18 20:16:33;;;;;;;31.92;17.50;;;2.00;99.90;;;;;;6105410;23;20093;-88
2021/11/18 20:19:37;;;;;;;34.05;19.25;;;1.90;99.90;;;;;;6118484;23;20026;-89
2021/11/18 21:55:08;;;;;;;;;;;;;;;;;;;;;
2021/11/18 21:58:04;;;;;;;70.15;32.08;;;1.90;99.90;;;;;;6254059;23;20427;-86
2021/11/18 22:01:23;;;;;;;55.95;31.40;;;1.90;99.90;;;;;;6236780;22;20379;-89
2021/11/18 22:04:37;;;;;;;;;;;;;;;;;;;;;
2021/11/18 22:07:48;;;;;;;;;;;;;;;;;;;;;
2021/11/18 22:11:24;;;;;;;66.38;31.55;;;1.90;99.90;;;;;;6257295;23;20035;-90
2021/11/18 22:14:46;;;;;;;;;;;;;;;;;;;;;
2021/11/18 22:18:23;;;;;;;61.25;27.92;;;2.00;99.90;;;;;;6102628;23;20037;-89
2021/11/18 22:26:04;;;;;;;55.00;27.05;;;2.00;99.90;;;;;;5997949;23;20023;-90
2021/11/18 22:29:38;;;;;;;;;;;;;;;;;;;;;
2021/11/18 22:33:22;;;;;;;53.83;27.48;;;1.80;99.90;;;;;;6029501;23;20011;-83
2021/11/18 22:37:24;;;;;;;;;;;;;;;;;;;;;
2021/11/18 22:40:50;;;;;;;52.15;27.10;;;1.80;99.90;;;;;;6120548;23;20018;-86
2021/11/18 22:44:27;;;;;;;62.88;33.90;;;1.80;99.90;;;;;;6149595;23;20014;-86
2021/11/18 22:47:37;;;;;;;55.30;31.30;;;1.70;99.90;;;;;;6132399;23;20041;-85
2021/11/18 22:50:41;;;;;;;50.70;29.80;;;1.60;99.90;;;;;;6240784;22;20029;-90
2021/11/18 22:53:45;;;;;;;59.22;30.20;;;1.40;99.90;;;;;;6230559;23;20029;-91
2021/11/18 22:57:06;;;;;;;58.13;27.48;;;1.30;99.90;;;;;;6227997;23;20035;-88
2021/11/18 23:00:45;;;;;;;;;;;;;;;;;;;;;
2021/11/18 23:03:46;;;;;;;;;;;;;;;;;;;;;
2021/11/18 23:06:54;;;;;;;;;;;;;;;;;;;;;
2021/11/18 23:10:09;;;;;;;49.83;26.05;;;0.90;99.90;;;;;;6231904;23;20031;-90
2021/11/18 23:12:59;;;;;;;49.72;26.95;;;0.90;99.90;;;;;;6230591;23;20020;-89
2021/11/18 23:15:53;;;;;;;53.40;28.17;;;0.90;99.90;;;;;;6231747;23;20472;-88
2021/11/18 23:19:03;;;;;;;44.72;25.83;;;0.90;99.90;;;;;;6234042;23;20039;-90
2021/11/18 23:22:33;;;;;;;48.35;26.10;;;1.00;99.90;;;;;;6230749;23;20038;-89
2021/11/18 23:25:47;;;;;;;;;;;;;;;;;;;;;
2021/11/18 23:29:09;;;;;;;50.97;26.33;;;1.00;99.90;;;;;;6221166;23;20133;-90
2021/11/18 23:32:21;;;;;;;;;;;;;;;;;;;;;
2021/11/18 23:35:47;;;;;;;47.38;24.65;;;1.00;99.90;;;;;;6131807;23;20033;-90
2021/11/18 23:38:46;;;;;;;54.38;27.02;;;1.00;99.90;;;;;;6132604;23;20123;-90
2021/11/18 23:41:54;;;;;;;50.55;27.67;;;0.90;99.90;;;;;;6127634;23;20061;-90
2021/11/18 23:44:48;;;;;;;53.80;26.90;;;1.00;99.90;;;;;;6112546;23;20026;-90
2021/11/18 23:48:13;;;;;;;52.65;27.27;;;1.00;99.90;;;;;;6129713;23;20112;-87
2021/11/18 23:51:35;;;;;;;60.83;29.50;;;1.00;99.90;;;;;;6085859;23;20037;-90
2021/11/18 23:58:42;;;;;;;47.65;25.85;;;0.80;99.90;;;;;;6130718;23;20030;-91
